Time;durP1;ratioP1;P1;durP2;ratioP2;P2;SDS_P1;SDS_P2;PMS_P1;PMS_P2;Temp;Humidity;BMP_temperature;BMP_pressure;BME280_temperature;BME280_humidity;BME280_pressure;Samples;Min_cycle;Max_cycle;Signal;HPM_P1;HPM_P2
2021/01/05 00:00:00;;;;;;;;;;;24.70;95.20;;;;;;5032342;28;19919;-85
2021/01/05 00:02:26;;;;;;;;;;;24.90;94.10;;;;;;5014081;28;19909;-85
2021/01/05 00:04:53;;;;;;;;;;;25.00;93.80;;;;;;5021478;28;19921;-84
2021/01/05 00:07:20;;;;;;;;;;;25.00;92.20;;;;;;5030145;28;19929;-85
2021/01/05 00:09:47;;;;;;;;;;;25.00;93.00;;;;;;5014894;28;19917;-85
2021/01/05 00:12:15;;;;;;;;;;;24.90;93.10;;;;;;5016567;28;20290;-86
2021/01/05 00:14:42;;;;;;;;;;;25.00;93.90;;;;;;5034813;28;19919;-84
2021/01/05 00:17:09;;;;;;;;;;;25.20;93.40;;;;;;5026297;28;19921;-84
2021/01/05 00:19:36;;;;;;;;;;;25.30;93.60;;;;;;5041139;28;20271;-86
2021/01/05 00:22:03;;;;;;;;;;;25.30;93.00;;;;;;5035841;28;19909;-86
2021/01/05 00:24:30;;;;;;;;;;;25.40;92.70;;;;;;5018710;28;19920;-86
2021/01/05 00:26:57;;;;;;;;;;;25.50;92.90;;;;;;5033148;28;19917;-87
2021/01/05 00:29:24;;;;;;;;;;;25.60;92.40;;;;;;5015401;28;19921;-85
2021/01/05 00:32:01;;;;;;;;;;;25.70;91.70;;;;;;5029509;28;20047;-86
2021/01/05 00:34:27;;;;;;;;;;;25.70;91.50;;;;;;5018683;28;19920;-86
2021/01/05 00:36:55;;;;;;;;;;;25.90;91.60;;;;;;5023282;28;20287;-87
2021/01/05 00:39:25;;;;;;;;;;;25.90;91.50;;;;;;5026693;28;19928;-86
2021/01/05 00:41:52;;;;;;;;;;;25.80;91.20;;;;;;5003192;28;20391;-86
2021/01/05 00:44:18;;;;;;;;;;;25.70;90.80;;;;;;5003055;28;19959;-85
2021/01/05 00:46:45;;;;;;;;;;;25.60;91.20;;;;;;5013075;28;20431;-85
2021/01/05 00:49:15;;;;;;;;;;;25.50;91.70;;;;;;5032456;28;20356;-86
2021/01/05 00:51:42;;;;;;;;;;;25.40;91.90;;;;;;5031501;28;20027;-86
2021/01/05 00:54:09;;;;;;;;;;;25.40;91.60;;;;;;5019272;28;19928;-84
2021/01/05 00:56:36;;;;;;;;;;;25.80;91.90;;;;;;5024323;28;19992;-86
2021/01/05 00:59:03;;;;;;;;;;;26.60;89.30;;;;;;5015826;28;20047;-87
2021/01/05 01:01:30;;;;;;;;;;;27.20;86.20;;;;;;5018314;28;19960;-87
2021/01/05 01:04:00;;;;;;;;;;;27.40;86.60;;;;;;5020998;28;19917;-85
2021/01/05 01:06:26;;;;;;;;;;;27.90;83.10;;;;;;5017904;28;19913;-85
2021/01/05 01:08:53;;;;;;;;;;;27.60;85.70;;;;;;5029004;28;20246;-84
2021/01/05 01:11:20;;;;;;;;;;;27.10;84.80;;;;;;5027344;28;19917;-83
2021/01/05 01:13:47;;;;;;;;;;;27.10;85.40;;;;;;5020660;28;19921;-83
2021/01/05 01:16:13;;;;;;;;;;;27.50;85.30;;;;;;5042275;28;19948;-83
2021/01/05 01:18:40;;;;;;;;;;;27.70;85.70;;;;;;5044374;28;19913;-83
2021/01/05 01:21:10;;;;;;;;;;;27.80;88.90;;;;;;5014482;28;19996;-85
2021/01/05 01:23:37;;;;;;;;;;;27.50;90.30;;;;;;5031719;28;19958;-82
2021/01/05 01:26:07;;;;;;;;;;;27.00;91.20;;;;;;5028377;28;19917;-86
2021/01/05 01:28:35;;;;;;;;;;;27.10;91.00;;;;;;5030165;28;19928;-85
2021/01/05 01:31:01;;;;;;;;;;;27.40;90.80;;;;;;5024759;28;19917;-85
2021/01/05 01:33:34;;;;;;;;;;;27.70;89.80;;;;;;5032629;28;19925;-86
2021/01/05 01:36:01;;;;;;;;;;;27.80;90.70;;;;;;5017205;28;19913;-84
2021/01/05 01:38:28;;;;;;;;;;;28.10;89.80;;;;;;5024928;28;19957;-83
2021/01/05 01:41:01;;;;;;;;;;;28.50;89.40;;;;;;5038922;28;19916;-84
2021/01/05 01:43:30;;;;;;;;;;;28.70;87.40;;;;;;5027089;28;19924;-85
2021/01/05 01:45:57;;;;;;;;;;;28.90;86.90;;;;;;5041247;28;19913;-86
2021/01/05 01:48:23;;;;;;;;;;;29.20;85.90;;;;;;5013871;28;19925;-86
2021/01/05 01:50:54;;;;;;;;;;;28.70;85.90;;;;;;5014272;28;19985;-84
2021/01/05 01:53:36;;;;;;;;;;;28.80;84.50;;;;;;5026689;28;19924;-81
2021/01/05 01:56:16;;;;;;;;;;;28.50;86.10;;;;;;5022315;28;19924;-84
2021/01/05 01:58:42;;;;;;;;;;;28.20;88.50;;;;;;5043888;28;19924;-83
2021/01/05 02:01:22;;;;;;;;;;;28.10;89.20;;;;;;5035567;28;19929;-85
2021/01/05 02:04:08;;;;;;;;;;;27.60;90.00;;;;;;5023524;28;19999;-83
2021/01/05 02:06:44;;;;;;;;;;;27.50;90.00;;;;;;5032565;28;19921;-84
2021/01/05 02:09:20;;;;;;;;;;;27.40;90.10;;;;;;5023801;28;19948;-84
2021/01/05 02:11:54;;;;;;;;;;;27.20;88.90;;;;;;5019651;28;20351;-84
2021/01/05 02:14:26;;;;;;;;;;;27.20;90.00;;;;;;5036066;28;20360;-84
2021/01/05 02:16:58;;;;;;;;;;;27.10;90.40;;;;;;5017818;28;19913;-84
2021/01/05 02:19:32;;;;;;;;;;;27.20;90.30;;;;;;5037903;28;19913;-83
2021/01/05 02:22:13;;;;;;;;;;;27.40;89.80;;;;;;5036678;28;19955;-84
2021/01/05 02:24:53;;;;;;;;;;;27.20;88.60;;;;;;5033727;28;20411;-83
2021/01/05 02:27:20;;;;;;;;;;;27.00;89.80;;;;;;5036277;28;19913;-84
2021/01/05 02:29:51;;;;;;;;;;;26.90;88.80;;;;;;5035015;28;19944;-82
2021/01/05 02:32:23;;;;;;;;;;;26.80;89.10;;;;;;5036206;28;19909;-83
2021/01/05 02:35:08;;;;;;;;;;;26.90;90.40;;;;;;5035280;28;19909;-86
2021/01/05 02:37:38;;;;;;;;;;;26.80;90.90;;;;;;5017029;28;19910;-83
2021/01/05 02:40:43;;;;;;;;;;;26.60;90.80;;;;;;5017737;28;19913;-84
2021/01/05 02:43:21;;;;;;;;;;;26.40;92.30;;;;;;4977266;28;20337;-85
2021/01/05 02:46:06;;;;;;;;;;;26.30;92.60;;;;;;4984399;28;19918;-85
2021/01/05 02:48:36;;;;;;;;;;;26.00;93.00;;;;;;4983282;28;19922;-84
2021/01/05 02:51:17;;;;;;;;;;;25.70;93.90;;;;;;4995648;28;19914;-84
2021/01/05 02:54:00;;;;;;;;;;;25.60;94.00;;;;;;4993371;28;20667;-84
2021/01/05 02:56:29;;;;;;;;;;;25.50;93.80;;;;;;4996697;28;19996;-84
2021/01/05 02:58:59;;;;;;;;;;;25.40;93.80;;;;;;4996602;28;19910;-85
2021/01/05 03:01:47;;;;;;;;;;;25.30;94.60;;;;;;4995836;28;19956;-84
2021/01/05 03:04:14;;;;;;;;;;;25.20;94.90;;;;;;4992942;28;20388;-84
2021/01/05 03:06:45;;;;;;;;;;;25.20;94.80;;;;;;4998865;28;20414;-85
2021/01/05 03:09:29;;;;;;;;;;;25.40;95.10;;;;;;4994901;28;19922;-84
2021/01/05 03:11:56;;;;;;;;;;;25.40;94.50;;;;;;4994820;28;19914;-82
2021/01/05 03:14:31;;;;;;;;;;;25.30;94.30;;;;;;4997425;28;20308;-84
2021/01/05 03:17:02;;;;;;;;;;;25.30;94.60;;;;;;5000093;28;19921;-84
2021/01/05 03:19:38;;;;;;;;;;;25.20;94.10;;;;;;4993616;28;19937;-86
2021/01/05 03:22:07;;;;;;;;;;;25.40;94.80;;;;;;4993716;28;19968;-86
2021/01/05 03:24:33;;;;;;;;;;;25.60;93.90;;;;;;4992924;28;19965;-88
2021/01/05 03:27:00;;;;;;;;;;;25.80;94.50;;;;;;4994716;28;19914;-88
2021/01/05 03:29:30;;;;;;;;;;;25.90;94.40;;;;;;5011785;28;19937;-85
2021/01/05 03:32:02;;;;;;;;;;;25.90;93.50;;;;;;4994483;28;19980;-86
2021/01/05 03:34:28;;;;;;;;;;;25.80;93.30;;;;;;4994457;28;19945;-86
2021/01/05 03:36:55;;;;;;;;;;;26.00;93.60;;;;;;4992831;28;20056;-86
2021/01/05 03:39:24;;;;;;;;;;;26.00;93.00;;;;;;4994507;28;20292;-86
2021/01/05 03:41:51;;;;;;;;;;;25.80;93.60;;;;;;4991589;28;20383;-86
2021/01/05 03:44:18;;;;;;;;;;;25.70;94.30;;;;;;4994190;28;19936;-86
2021/01/05 03:46:44;;;;;;;;;;;25.60;94.10;;;;;;5018571;28;20004;-86
2021/01/05 03:49:11;;;;;;;;;;;25.70;94.60;;;;;;5015946;28;19944;-86
2021/01/05 03:51:38;;;;;;;;;;;25.80;93.90;;;;;;5033078;28;19921;-86
2021/01/05 03:54:04;;;;;;;;;;;25.60;93.60;;;;;;5033435;28;19921;-85
2021/01/05 03:56:31;;;;;;;;;;;25.60;94.00;;;;;;5015304;28;19921;-87
2021/01/05 03:58:58;;;;;;;;;;;25.70;94.10;;;;;;5016036;28;19972;-87
2021/01/05 04:01:25;;;;;;;;;;;25.90;93.60;;;;;;5034414;28;19916;-87
2021/01/05 04:03:52;;;;;;;;;;;26.10;93.30;;;;;;5016953;28;20272;-85
2021/01/05 04:06:19;;;;;;;;;;;26.20;93.70;;;;;;5033018;28;20371;-87
2021/01/05 04:08:45;;;;;;;;;;;26.30;93.20;;;;;;5032048;28;20438;-87
2021/01/05 04:11:17;;;;;;;;;;;26.30;93.30;;;;;;5032841;28;19958;-85
2021/01/05 04:13:44;;;;;;;;;;;26.40;92.80;;;;;;5033572;28;19913;-86
2021/01/05 04:16:11;;;;;;;;;;;26.30;92.90;;;;;;5034245;28;20015;-86
2021/01/05 04:18:37;;;;;;;;;;;26.30;93.60;;;;;;5032598;28;19914;-87
2021/01/05 04:21:04;;;;;;;;;;;26.10;93.30;;;;;;5033555;28;19917;-89
2021/01/05 04:23:31;;;;;;;;;;;25.90;93.10;;;;;;5033221;28;19959;-86
2021/01/05 04:25:58;;;;;;;;;;;25.80;94.10;;;;;;5037782;28;19940;-86
2021/01/05 04:28:24;;;;;;;;;;;25.60;94.10;;;;;;5037741;28;19925;-88
2021/01/05 04:30:51;;;;;;;;;;;25.60;94.90;;;;;;5037034;28;19952;-87
2021/01/05 04:33:17;;;;;;;;;;;25.60;94.40;;;;;;5019306;28;19913;-88
2021/01/05 04:35:44;;;;;;;;;;;25.50;94.50;;;;;;5036138;28;19917;-89
2021/01/05 04:38:11;;;;;;;;;;;25.40;92.80;;;;;;5036868;28;19913;-88
2021/01/05 04:40:39;;;;;;;;;;;25.30;93.50;;;;;;5019411;28;20402;-88
2021/01/05 04:43:05;;;;;;;;;;;25.30;93.30;;;;;;5037214;28;20016;-87
2021/01/05 04:45:33;;;;;;;;;;;25.30;93.60;;;;;;5035738;28;19917;-86
2021/01/05 04:48:13;;;;;;;;;;;25.30;94.20;;;;;;5014992;28;19951;-84
2021/01/05 04:50:46;;;;;;;;;;;25.30;94.60;;;;;;5019859;28;19917;-88
2021/01/05 04:53:21;;;;;;;;;;;25.30;94.70;;;;;;5035274;28;19913;-84
2021/01/05 04:55:49;;;;;;;;;;;25.10;95.20;;;;;;5037362;28;19927;-83
2021/01/05 04:58:36;;;;;;;;;;;25.00;95.90;;;;;;5056628;28;19909;-86
2021/01/05 05:01:07;;;;;;;;;;;24.90;95.60;;;;;;5040865;28;19916;-83
2021/01/05 05:03:39;;;;;;;;;;;24.90;95.80;;;;;;5035645;28;19948;-85
2021/01/05 05:06:29;;;;;;;;;;;24.80;97.20;;;;;;5017000;28;20008;-82
2021/01/05 05:09:11;;;;;;;;;;;24.60;99.20;;;;;;5030595;28;19932;-82
2021/01/05 05:11:49;;;;;;;;;;;24.30;99.90;;;;;;5029894;28;19971;-81
2021/01/05 05:14:22;;;;;;;;;;;24.10;99.90;;;;;;5035239;28;20008;-83
2021/01/05 05:16:57;;;;;;;;;;;24.10;99.20;;;;;;5035439;28;20191;-83
2021/01/05 05:19:26;;;;;;;;;;;24.00;99.90;;;;;;5018958;28;19921;-84
2021/01/05 05:22:06;;;;;;;;;;;24.10;99.30;;;;;;5035648;28;19913;-83
2021/01/05 05:24:36;;;;;;;;;;;24.20;98.60;;;;;;5018350;28;19960;-84
2021/01/05 05:27:22;;;;;;;;;;;24.40;98.00;;;;;;5037650;28;19959;-84
2021/01/05 05:29:57;;;;;;;;;;;24.50;97.60;;;;;;5028236;28;19917;-82
2021/01/05 05:32:29;;;;;;;;;;;24.60;96.90;;;;;;5029813;28;19940;-84
2021/01/05 05:34:58;;;;;;;;;;;24.70;96.00;;;;;;5035209;28;19916;-82
2021/01/05 05:37:25;;;;;;;;;;;24.70;95.50;;;;;;5033550;28;19952;-81
2021/01/05 05:39:59;;;;;;;;;;;24.70;96.00;;;;;;5034061;28;19916;-83
2021/01/05 05:42:51;;;;;;;;;;;24.80;96.60;;;;;;5034154;28;19953;-81
2021/01/05 05:45:21;;;;;;;;;;;24.90;95.80;;;;;;5033691;28;20382;-82
2021/01/05 05:47:58;;;;;;;;;;;25.00;96.50;;;;;;5034410;28;20655;-82
2021/01/05 05:50:46;;;;;;;;;;;25.00;96.90;;;;;;5033322;28;20449;-80
2021/01/05 05:53:15;;;;;;;;;;;25.00;96.30;;;;;;5032359;28;19917;-82
2021/01/05 05:56:00;;;;;;;;;;;25.00;96.50;;;;;;5034202;28;19963;-83
2021/01/05 05:58:45;;;;;;;;;;;25.10;96.40;;;;;;5053206;28;19963;-82
2021/01/05 06:01:18;;;;;;;;;;;25.10;96.10;;;;;;5037054;28;19996;-84
2021/01/05 06:03:44;;;;;;;;;;;25.10;95.50;;;;;;5030952;28;19913;-85
2021/01/05 06:06:14;;;;;;;;;;;25.20;95.10;;;;;;5033464;28;20014;-84
2021/01/05 06:08:43;;;;;;;;;;;25.30;95.40;;;;;;5029732;28;19924;-83
2021/01/05 06:11:11;;;;;;;;;;;25.30;94.70;;;;;;5024467;28;19928;-81
2021/01/05 06:13:41;;;;;;;;;;;25.30;94.90;;;;;;5014188;28;19913;-81
2021/01/05 06:16:09;;;;;;;;;;;25.30;94.30;;;;;;5033346;28;19919;-83
2021/01/05 06:18:36;;;;;;;;;;;25.40;94.80;;;;;;5031796;28;19995;-83
2021/01/05 06:21:05;;;;;;;;;;;25.40;94.70;;;;;;5014043;28;19917;-84
2021/01/05 06:23:33;;;;;;;;;;;25.40;94.40;;;;;;5031696;28;21649;-82
2021/01/05 06:26:00;;;;;;;;;;;25.40;94.10;;;;;;5031516;28;19976;-82
2021/01/05 06:28:26;;;;;;;;;;;25.50;94.00;;;;;;5015876;28;20025;-84
2021/01/05 06:30:56;;;;;;;;;;;25.40;93.90;;;;;;5041874;28;20479;-82
2021/01/05 06:33:23;;;;;;;;;;;25.30;93.70;;;;;;5016138;28;19916;-82
2021/01/05 06:35:49;;;;;;;;;;;25.40;93.90;;;;;;5040603;28;19952;-80
2021/01/05 06:38:16;;;;;;;;;;;25.40;93.70;;;;;;5049274;28;20326;-82
2021/01/05 06:40:44;;;;;;;;;;;25.30;95.30;;;;;;5036084;28;19968;-83
2021/01/05 06:43:12;;;;;;;;;;;25.30;96.40;;;;;;5032007;28;19960;-83
2021/01/05 06:45:39;;;;;;;;;;;25.10;96.30;;;;;;5031628;28;20416;-82
2021/01/05 06:48:09;;;;;;;;;;;25.10;97.00;;;;;;5030514;28;19921;-82
2021/01/05 06:50:36;;;;;;;;;;;25.10;96.90;;;;;;5020801;28;19925;-80
2021/01/05 06:53:02;;;;;;;;;;;25.00;96.90;;;;;;5026941;28;20671;-80
2021/01/05 06:55:29;;;;;;;;;;;25.00;97.50;;;;;;5031566;28;19967;-80
2021/01/05 06:57:56;;;;;;;;;;;24.90;97.10;;;;;;5031434;28;19928;-80
2021/01/05 07:00:24;;;;;;;;;;;24.90;97.90;;;;;;5031827;28;19917;-80
2021/01/05 07:02:51;;;;;;;;;;;24.90;97.40;;;;;;5031759;28;19963;-82
2021/01/05 07:05:18;;;;;;;;;;;24.80;97.50;;;;;;5031955;28;19913;-83
2021/01/05 07:07:45;;;;;;;;;;;24.80;98.00;;;;;;5013500;28;19913;-81
2021/01/05 07:10:12;;;;;;;;;;;24.80;96.60;;;;;;5016043;28;19923;-83
2021/01/05 07:12:40;;;;;;;;;;;24.70;97.30;;;;;;5050076;28;19913;-81
2021/01/05 07:15:08;;;;;;;;;;;24.50;98.10;;;;;;5037394;28;19909;-85
2021/01/05 07:17:35;;;;;;;;;;;24.30;99.00;;;;;;5033453;28;19913;-83
2021/01/05 07:20:05;;;;;;;;;;;24.20;99.20;;;;;;5014056;28;19921;-85
2021/01/05 07:22:33;;;;;;;;;;;24.10;99.80;;;;;;5031180;28;19921;-83
2021/01/05 07:25:00;;;;;;;;;;;24.20;99.80;;;;;;5013985;28;20255;-83
2021/01/05 07:27:27;;;;;;;;;;;24.10;99.90;;;;;;5012970;28;20377;-85
2021/01/05 07:29:54;;;;;;;;;;;23.80;99.90;;;;;;5030162;28;20379;-84
2021/01/05 07:32:21;;;;;;;;;;;23.60;99.90;;;;;;5027838;28;19917;-81
2021/01/05 07:34:47;;;;;;;;;;;23.60;99.90;;;;;;5030949;28;20003;-86
2021/01/05 07:37:17;;;;;;;;;;;23.50;99.90;;;;;;5029183;28;19964;-82
2021/01/05 07:39:43;;;;;;;;;;;23.40;99.90;;;;;;5012894;28;19916;-86
2021/01/05 07:42:10;;;;;;;;;;;23.30;99.90;;;;;;5014771;28;19953;-85
2021/01/05 07:44:37;;;;;;;;;;;23.20;99.90;;;;;;5030564;28;19924;-82
2021/01/05 07:47:04;;;;;;;;;;;23.10;99.90;;;;;;5030910;28;19925;-82
2021/01/05 07:49:31;;;;;;;;;;;23.00;99.90;;;;;;5030362;28;19924;-82
2021/01/05 07:51:57;;;;;;;;;;;23.10;99.90;;;;;;5028820;28;20000;-82
2021/01/05 07:54:24;;;;;;;;;;;23.10;99.90;;;;;;5029539;28;20376;-81
2021/01/05 07:56:51;;;;;;;;;;;23.10;99.90;;;;;;5010826;28;20019;-82
2021/01/05 07:59:18;;;;;;;;;;;23.00;99.90;;;;;;5035770;28;19913;-83
2021/01/05 08:01:48;;;;;;;;;;;23.00;99.90;;;;;;5011530;28;19924;-84
2021/01/05 08:04:15;;;;;;;;;;;23.00;99.90;;;;;;5034633;28;19924;-83
2021/01/05 08:06:43;;;;;;;;;;;23.00;99.90;;;;;;5047254;28;20283;-82
2021/01/05 08:09:09;;;;;;;;;;;23.00;99.90;;;;;;5014331;28;19948;-82
2021/01/05 08:11:39;;;;;;;;;;;23.00;99.90;;;;;;5031317;28;19959;-83
2021/01/05 08:14:06;;;;;;;;;;;23.00;99.90;;;;;;5021206;28;19910;-84
2021/01/05 08:16:32;;;;;;;;;;;23.00;99.90;;;;;;5030596;28;20431;-83
2021/01/05 08:19:00;;;;;;;;;;;23.00;99.90;;;;;;5012476;28;19924;-84
2021/01/05 08:21:26;;;;;;;;;;;23.00;99.90;;;;;;5032584;28;19916;-84
2021/01/05 08:23:54;;;;;;;;;;;23.00;99.90;;;;;;5032128;28;19959;-84
2021/01/05 08:26:21;;;;;;;;;;;22.90;99.90;;;;;;5030929;28;19920;-84
2021/01/05 08:28:47;;;;;;;;;;;23.10;99.90;;;;;;5014498;28;19924;-84
2021/01/05 08:34:23;;;;;;;;;;;23.00;99.90;;;;;;5018964;28;19913;-83
2021/01/05 08:36:50;;;;;;;;;;;23.00;99.90;;;;;;5032325;28;19935;-84
2021/01/05 08:39:16;;;;;;;;;;;23.00;99.90;;;;;;5032040;28;19913;-83
2021/01/05 08:41:43;;;;;;;;;;;23.00;99.90;;;;;;5013540;28;19924;-83
2021/01/05 08:44:11;;;;;;;;;;;23.00;99.90;;;;;;5041414;28;19913;-84
2021/01/05 08:46:38;;;;;;;;;;;23.00;99.90;;;;;;5041681;28;19975;-84
2021/01/05 08:49:05;;;;;;;;;;;23.00;99.90;;;;;;5030897;28;19925;-84
2021/01/05 08:51:32;;;;;;;;;;;23.00;99.90;;;;;;5031917;28;19916;-83
2021/01/05 08:53:59;;;;;;;;;;;23.10;99.90;;;;;;5032474;28;19916;-84
2021/01/05 08:56:29;;;;;;;;;;;23.00;99.90;;;;;;5012360;28;19939;-82
2021/01/05 08:58:56;;;;;;;;;;;23.00;99.90;;;;;;5018200;28;20383;-84
2021/01/05 09:01:23;;;;;;;;;;;23.00;99.90;;;;;;5026367;28;19965;-84
2021/01/05 09:03:50;;;;;;;;;;;23.10;99.90;;;;;;5031199;28;19993;-84
2021/01/05 09:06:22;;;;;;;;;;;23.00;99.90;;;;;;5030922;28;19910;-84
2021/01/05 09:08:48;;;;;;;;;;;23.00;99.90;;;;;;5013865;28;20545;-86
2021/01/05 09:11:25;;;;;;;;;;;23.00;99.90;;;;;;5026457;28;20283;-84
2021/01/05 09:13:52;;;;;;;;;;;23.00;99.90;;;;;;5035780;28;20020;-84
2021/01/05 09:16:19;;;;;;;;;;;22.90;99.90;;;;;;5035199;28;19909;-84
2021/01/05 09:18:48;;;;;;;;;;;23.00;99.90;;;;;;5021293;28;19912;-82
2021/01/05 09:21:25;;;;;;;;;;;;;;;;;;;;;
2021/01/05 09:23:53;;;;;;;;;;;22.90;99.90;;;;;;5033058;28;19913;-85
2021/01/05 09:26:21;;;;;;;;;;;22.90;99.90;;;;;;5031735;28;19913;-81
2021/01/05 09:28:48;;;;;;;;;;;22.90;99.90;;;;;;5032723;28;19917;-83
2021/01/05 09:31:15;;;;;;;;;;;22.90;99.90;;;;;;5014884;28;19967;-79
2021/01/05 09:33:45;;;;;;;;;;;22.80;99.90;;;;;;5032770;28;19920;-83
2021/01/05 09:36:15;;;;;;;;;;;22.80;99.90;;;;;;5032795;28;20311;-83
2021/01/05 09:38:46;;;;;;;;;;;22.80;99.90;;;;;;5032029;28;19909;-84
2021/01/05 09:41:21;;;;;;;;;;;22.80;99.90;;;;;;5033017;28;19913;-84
2021/01/05 09:43:53;;;;;;;;;;;22.80;99.90;;;;;;5032586;28;19917;-84
2021/01/05 09:46:21;;;;;;;;;;;22.80;99.90;;;;;;5031759;28;20295;-85
2021/01/05 09:48:48;;;;;;;;;;;22.80;99.90;;;;;;5032736;28;19925;-81
2021/01/05 09:51:22;;;;;;;;;;;22.80;99.90;;;;;;5026953;28;19960;-86
2021/01/05 09:53:52;;;;;;;;;;;22.70;99.90;;;;;;5015091;28;20257;-84
2021/01/05 09:56:18;;;;;;;;;;;22.70;99.90;;;;;;5033843;28;19936;-82
2021/01/05 09:58:45;;;;;;;;;;;22.70;99.90;;;;;;5032756;28;19917;-85
2021/01/05 10:01:12;;;;;;;;;;;22.70;99.90;;;;;;5033791;28;19909;-82
2021/01/05 10:03:39;;;;;;;;;;;22.60;99.90;;;;;;5040193;28;19916;-82
2021/01/05 10:06:06;;;;;;;;;;;22.60;99.90;;;;;;5039105;28;19917;-84
2021/01/05 10:08:33;;;;;;;;;;;22.60;99.90;;;;;;5017251;28;20359;-83
2021/01/05 10:11:00;;;;;;;;;;;22.50;99.90;;;;;;5016568;28;19909;-85
2021/01/05 10:13:54;;;;;;;;;;;22.60;99.90;;;;;;5037240;28;19913;-85
2021/01/05 10:16:19;;;;;;;;;;;22.50;99.90;;;;;;5033046;28;19913;-82
2021/01/05 10:18:48;;;;;;;;;;;22.50;99.90;;;;;;5033515;28;19917;-84
2021/01/05 10:21:15;;;;;;;;;;;22.50;99.90;;;;;;5032957;28;20012;-84
2021/01/05 10:23:44;;;;;;;;;;;22.50;99.90;;;;;;5032448;28;19920;-85
2021/01/05 10:26:11;;;;;;;;;;;22.40;99.90;;;;;;5015161;28;19960;-84
2021/01/05 10:28:48;;;;;;;;;;;22.40;99.90;;;;;;5033314;28;20245;-82
2021/01/05 10:31:14;;;;;;;;;;;22.40;99.90;;;;;;5035031;28;19913;-83
2021/01/05 10:33:41;;;;;;;;;;;22.40;99.90;;;;;;5015147;28;19935;-84
2021/01/05 10:36:08;;;;;;;;;;;22.40;99.90;;;;;;5032647;28;19909;-84
2021/01/05 10:38:34;;;;;;;;;;;22.40;99.90;;;;;;5032368;28;19917;-85
2021/01/05 10:41:01;;;;;;;;;;;22.40;99.90;;;;;;5032613;28;19977;-83
2021/01/05 10:43:31;;;;;;;;;;;22.40;99.90;;;;;;5033158;28;19913;-85
2021/01/05 10:45:57;;;;;;;;;;;22.40;99.90;;;;;;5033343;28;19932;-82
2021/01/05 10:48:27;;;;;;;;;;;22.40;99.90;;;;;;5014701;28;19917;-86
2021/01/05 10:50:54;;;;;;;;;;;22.20;99.90;;;;;;5032132;28;19919;-86
2021/01/05 10:53:24;;;;;;;;;;;22.20;99.90;;;;;;5032303;28;19956;-84
2021/01/05 10:55:51;;;;;;;;;;;22.20;99.90;;;;;;5032493;28;19916;-84
2021/01/05 10:58:18;;;;;;;;;;;22.10;99.90;;;;;;5032452;28;19913;-83
2021/01/05 11:00:44;;;;;;;;;;;22.20;99.90;;;;;;5015254;28;19963;-84
2021/01/05 11:03:14;;;;;;;;;;;22.10;99.90;;;;;;5032296;28;19996;-83
2021/01/05 11:05:41;;;;;;;;;;;22.00;99.90;;;;;;5014250;28;19909;-83
2021/01/05 11:08:08;;;;;;;;;;;21.90;99.90;;;;;;5030633;28;19921;-82
2021/01/05 11:10:35;;;;;;;;;;;21.90;99.90;;;;;;5015165;28;19917;-82
2021/01/05 11:13:01;;;;;;;;;;;22.00;99.90;;;;;;5013024;28;20326;-83
2021/01/05 11:15:28;;;;;;;;;;;21.90;99.90;;;;;;5011967;28;20340;-85
2021/01/05 11:17:55;;;;;;;;;;;21.90;99.90;;;;;;5025415;28;20006;-84
2021/01/05 11:20:22;;;;;;;;;;;21.90;99.90;;;;;;5051714;28;19920;-84
2021/01/05 11:22:51;;;;;;;;;;;21.90;99.90;;;;;;5052048;28;19915;-84
2021/01/05 11:25:19;;;;;;;;;;;21.90;99.90;;;;;;5051747;28;19935;-84
2021/01/05 11:27:50;;;;;;;;;;;21.80;99.90;;;;;;5051804;28;19916;-84
2021/01/05 11:30:23;;;;;;;;;;;21.80;99.90;;;;;;5051054;28;20023;-84
2021/01/05 11:32:50;;;;;;;;;;;21.80;99.90;;;;;;5051272;28;19916;-84
2021/01/05 11:35:18;;;;;;;;;;;21.80;99.90;;;;;;5050775;28;19921;-83
2021/01/05 11:37:45;;;;;;;;;;;21.80;99.90;;;;;;5050888;28;19955;-82
2021/01/05 11:40:14;;;;;;;;;;;21.70;99.90;;;;;;5051383;28;20321;-83
2021/01/05 11:42:41;;;;;;;;;;;21.70;99.90;;;;;;5047845;28;19924;-84
2021/01/05 11:45:08;;;;;;;;;;;21.70;99.90;;;;;;5040393;28;19908;-84
2021/01/05 11:47:36;;;;;;;;;;;21.70;99.90;;;;;;5041377;28;20015;-83
2021/01/05 11:50:03;;;;;;;;;;;21.70;99.90;;;;;;5040196;28;19925;-83
2021/01/05 11:52:31;;;;;;;;;;;21.70;99.90;;;;;;5022214;28;20282;-84
2021/01/05 11:54:57;;;;;;;;;;;21.70;99.90;;;;;;5041577;28;19913;-85
2021/01/05 11:57:24;;;;;;;;;;;21.70;99.90;;;;;;5038800;28;19996;-84
2021/01/05 11:59:50;;;;;;;;;;;21.70;99.90;;;;;;5041267;28;20012;-84
2021/01/05 12:02:17;;;;;;;;;;;21.60;99.90;;;;;;5039542;28;19916;-85
2021/01/05 12:04:44;;;;;;;;;;;21.70;99.90;;;;;;5042554;28;19917;-83
2021/01/05 12:07:11;;;;;;;;;;;21.70;99.90;;;;;;5050756;28;19913;-83
2021/01/05 12:09:37;;;;;;;;;;;21.70;99.90;;;;;;5037239;28;20011;-85
2021/01/05 12:12:08;;;;;;;;;;;21.70;99.90;;;;;;5031329;28;19917;-83
2021/01/05 12:14:35;;;;;;;;;;;21.70;99.90;;;;;;5031087;28;19947;-83
2021/01/05 12:17:03;;;;;;;;;;;21.80;99.90;;;;;;5031098;28;19913;-83
2021/01/05 12:19:40;;;;;;;;;;;21.70;99.90;;;;;;5030345;28;19919;-83
2021/01/05 12:22:07;;;;;;;;;;;21.70;99.90;;;;;;5029689;28;19936;-83
2021/01/05 12:24:42;;;;;;;;;;;21.60;99.90;;;;;;5030550;28;19924;-80
2021/01/05 12:27:14;;;;;;;;;;;21.60;99.90;;;;;;5033117;28;20362;-83
2021/01/05 12:29:44;;;;;;;;;;;21.60;99.90;;;;;;5032963;28;20422;-84
2021/01/05 12:32:13;;;;;;;;;;;21.50;99.90;;;;;;5033025;28;19948;-80
2021/01/05 12:34:44;;;;;;;;;;;21.10;99.90;;;;;;5031951;28;19913;-82
2021/01/05 12:37:12;;;;;;;;;;;20.90;99.90;;;;;;5032608;28;19913;-81
2021/01/05 12:39:39;;;;;;;;;;;20.60;99.90;;;;;;5031070;28;19929;-82
2021/01/05 12:42:12;;;;;;;;;;;20.40;99.90;;;;;;5032869;28;19913;-84
2021/01/05 12:44:39;;;;;;;;;;;20.40;99.90;;;;;;5035911;28;19913;-83
2021/01/05 12:47:05;;;;;;;;;;;20.30;99.90;;;;;;5035368;28;19921;-82
2021/01/05 12:49:35;;;;;;;;;;;20.30;99.90;;;;;;5036274;28;19948;-84
2021/01/05 12:52:09;;;;;;;;;;;20.30;99.90;;;;;;5035801;28;19917;-83
2021/01/05 12:54:36;;;;;;;;;;;20.30;99.90;;;;;;5035843;28;19954;-84
2021/01/05 12:57:04;;;;;;;;;;;20.30;99.90;;;;;;5049456;28;20002;-82
2021/01/05 12:59:32;;;;;;;;;;;20.30;99.90;;;;;;5043902;28;19968;-83
2021/01/05 13:02:04;;;;;;;;;;;20.20;99.90;;;;;;5018809;28;19913;-82
2021/01/05 13:04:30;;;;;;;;;;;20.20;99.90;;;;;;5016956;28;19910;-84
2021/01/05 13:06:57;;;;;;;;;;;20.30;99.90;;;;;;5033002;28;19995;-84
2021/01/05 13:09:25;;;;;;;;;;;20.30;99.90;;;;;;5035510;28;19932;-82
2021/01/05 13:11:51;;;;;;;;;;;20.30;99.90;;;;;;5035802;28;19948;-83
2021/01/05 13:14:22;;;;;;;;;;;20.40;99.90;;;;;;5035564;28;19913;-82
2021/01/05 13:16:49;;;;;;;;;;;20.40;99.90;;;;;;5035848;28;20005;-82
2021/01/05 13:19:17;;;;;;;;;;;20.30;99.90;;;;;;5036783;28;19971;-82
2021/01/05 13:21:45;;;;;;;;;;;20.30;99.90;;;;;;5036864;28;20008;-82
2021/01/05 13:24:15;;;;;;;;;;;20.30;99.90;;;;;;5037247;28;19909;-81
2021/01/05 13:26:43;;;;;;;;;;;20.30;99.90;;;;;;5036520;28;19964;-83
2021/01/05 13:29:09;;;;;;;;;;;20.30;99.90;;;;;;5036065;28;19975;-83
2021/01/05 13:31:41;;;;;;;;;;;20.30;99.90;;;;;;5035807;28;19909;-83
2021/01/05 13:34:11;;;;;;;;;;;20.20;99.90;;;;;;5035706;28;19916;-81
2021/01/05 13:36:41;;;;;;;;;;;20.20;99.90;;;;;;5035517;28;19920;-82
2021/01/05 13:39:07;;;;;;;;;;;20.30;99.90;;;;;;5035632;28;20077;-82
2021/01/05 13:41:35;;;;;;;;;;;20.30;99.90;;;;;;5035545;28;19913;-83
2021/01/05 13:44:02;;;;;;;;;;;20.20;99.90;;;;;;5035196;28;20029;-83
2021/01/05 13:46:30;;;;;;;;;;;20.20;99.90;;;;;;5035111;28;20451;-84
2021/01/05 13:48:59;;;;;;;;;;;20.10;99.90;;;;;;5035349;28;19917;-83
2021/01/05 13:51:26;;;;;;;;;;;20.10;99.90;;;;;;5033957;28;20398;-82
2021/01/05 13:53:53;;;;;;;;;;;20.10;99.90;;;;;;5025796;28;19917;-83
2021/01/05 13:56:20;;;;;;;;;;;20.10;99.90;;;;;;5033340;28;20006;-81
2021/01/05 13:58:47;;;;;;;;;;;20.20;99.90;;;;;;5035350;28;19909;-82
2021/01/05 14:01:17;;;;;;;;;;;20.10;99.90;;;;;;5035397;28;20277;-82
2021/01/05 14:03:48;;;;;;;;;;;20.10;99.90;;;;;;5034696;28;19924;-83
2021/01/05 14:06:16;;;;;;;;;;;20.10;99.90;;;;;;5035046;28;19921;-83
2021/01/05 14:08:43;;;;;;;;;;;20.00;99.90;;;;;;5035200;28;19924;-83
2021/01/05 14:11:10;;;;;;;;;;;19.90;99.90;;;;;;5034390;28;19952;-82
2021/01/05 14:13:37;;;;;;;;;;;19.90;99.90;;;;;;5034308;28;19913;-82
2021/01/05 14:16:06;;;;;;;;;;;19.90;99.90;;;;;;5034908;28;19923;-82
2021/01/05 14:18:33;;;;;;;;;;;19.80;99.90;;;;;;5017136;28;19975;-83
2021/01/05 14:21:00;;;;;;;;;;;19.80;99.90;;;;;;5034102;28;20249;-82
2021/01/05 14:23:26;;;;;;;;;;;19.90;99.90;;;;;;5034773;28;19916;-81
2021/01/05 14:25:53;;;;;;;;;;;19.90;99.90;;;;;;5034911;28;19909;-82
2021/01/05 14:28:20;;;;;;;;;;;19.80;99.90;;;;;;5034994;28;19913;-82
2021/01/05 14:30:46;;;;;;;;;;;19.80;99.90;;;;;;5034735;28;20319;-82
2021/01/05 14:33:13;;;;;;;;;;;19.70;99.90;;;;;;5034635;28;19959;-82